createdAt,value
2018-10-03T00:01:15.834Z,38.90
2018-10-03T00:03:44.967Z,43.42
2018-10-03T00:06:14.349Z,41.50
2018-10-03T00:08:43.392Z,41.90
2018-10-03T00:11:12.363Z,39.10
2018-10-03T00:13:41.322Z,42.17
2018-10-03T00:16:10.409Z,41.13
2018-10-03T00:18:40.047Z,40.92
2018-10-03T00:21:09.607Z,36.63
2018-10-03T00:23:38.755Z,42.90
2018-10-03T00:26:08.174Z,41.98
2018-10-03T00:28:37.302Z,44.03
2018-10-03T00:31:06.614Z,40.65
2018-10-03T00:33:35.676Z,41.10
2018-10-03T00:36:04.623Z,38.95
2018-10-03T00:38:34.339Z,38.00
2018-10-03T00:41:03.560Z,37.05
2018-10-03T00:43:32.523Z,36.60
2018-10-03T00:46:01.534Z,39.53
2018-10-03T00:48:30.816Z,36.08
2018-10-03T00:50:59.652Z,33.75
2018-10-03T00:53:28.764Z,33.88
2018-10-03T00:55:58.119Z,31.35
2018-10-03T00:58:27.103Z,32.93
2018-10-03T01:00:56.102Z,33.67
2018-10-03T01:03:24.998Z,32.53
2018-10-03T01:05:54.067Z,38.00
2018-10-03T01:08:23.082Z,30.23
2018-10-03T01:10:52.203Z,29.82
2018-10-03T01:13:21.283Z,29.60
2018-10-03T01:15:50.597Z,29.95
2018-10-03T01:18:19.995Z,26.42
2018-10-03T01:20:49.281Z,27.95
2018-10-03T01:23:18.381Z,26.60
2018-10-03T01:25:47.606Z,27.15
2018-10-03T01:28:16.769Z,27.73
2018-10-03T01:30:45.783Z,26.65
2018-10-03T01:33:15.143Z,21.57
2018-10-03T01:35:44.377Z,20.90
2018-10-03T01:38:13.717Z,21.27
2018-10-03T01:40:42.491Z,22.48
2018-10-03T01:43:11.571Z,19.02
2018-10-03T01:45:41.576Z,21.50
2018-10-03T01:48:10.384Z,23.05
2018-10-03T01:50:39.248Z,20.80
2018-10-03T01:53:08.459Z,19.87
2018-10-03T01:55:37.435Z,22.32
2018-10-03T01:58:06.423Z,22.32
2018-10-03T02:00:36.516Z,23.22
2018-10-03T02:03:05.375Z,20.15
2018-10-03T02:05:34.561Z,20.37
2018-10-03T02:08:03.352Z,25.75
2018-10-03T02:10:32.426Z,23.45
2018-10-03T02:13:02.062Z,21.30
2018-10-03T02:15:31.403Z,25.48
2018-10-03T02:18:00.453Z,22.77
2018-10-03T02:20:29.626Z,22.85
2018-10-03T02:22:58.823Z,18.62
2018-10-03T02:25:27.938Z,24.52
2018-10-03T02:27:56.957Z,23.92
2018-10-03T02:30:26.177Z,23.12
2018-10-03T02:32:55.215Z,23.67
2018-10-03T02:35:24.748Z,20.20
2018-10-03T02:37:53.955Z,22.75
2018-10-03T02:40:22.943Z,18.85
2018-10-03T02:42:52.659Z,18.30
2018-10-03T02:45:21.962Z,21.50
2018-10-03T02:47:52.627Z,19.30
2018-10-03T02:50:22.202Z,21.10
2018-10-03T02:52:51.302Z,21.35
2018-10-03T02:55:20.489Z,20.32
2018-10-03T02:57:50.718Z,24.25
2018-10-03T03:00:19.912Z,21.02
2018-10-03T03:02:48.823Z,20.77
2018-10-03T03:05:18.000Z,22.05
2018-10-03T03:07:47.291Z,25.92
2018-10-03T03:10:16.387Z,22.58
2018-10-03T03:12:45.398Z,20.00
2018-10-03T03:15:14.955Z,19.82
2018-10-03T03:17:44.008Z,21.20
2018-10-03T03:20:13.178Z,18.20
2018-10-03T03:22:42.563Z,22.50
2018-10-03T03:25:11.811Z,21.97
2018-10-03T03:27:40.900Z,17.17
2018-10-03T03:30:10.278Z,21.17
2018-10-03T03:32:39.474Z,25.62
2018-10-03T03:35:08.678Z,20.90
2018-10-03T03:37:38.223Z,21.87
2018-10-03T03:40:07.403Z,21.45
2018-10-03T03:42:36.470Z,23.20
2018-10-03T03:45:05.895Z,19.37
2018-10-03T03:47:35.026Z,18.02
2018-10-03T03:50:04.182Z,20.85
2018-10-03T03:52:33.308Z,19.37
2018-10-03T03:55:02.422Z,25.57
2018-10-03T03:57:31.772Z,22.58
2018-10-03T04:00:00.799Z,23.98
2018-10-03T04:02:30.032Z,22.82
2018-10-03T04:04:59.368Z,21.27
2018-10-03T04:07:28.437Z,20.57
2018-10-03T04:09:57.697Z,21.35
2018-10-03T04:12:27.283Z,24.95
2018-10-03T04:14:56.344Z,25.70
2018-10-03T04:17:25.506Z,23.73
2018-10-03T04:19:54.934Z,23.95
2018-10-03T04:22:24.111Z,21.40
2018-10-03T04:24:53.303Z,25.08
2018-10-03T04:27:22.611Z,27.85
2018-10-03T04:29:51.791Z,25.72
2018-10-03T04:32:21.116Z,23.90
2018-10-03T04:34:50.283Z,23.05
2018-10-03T04:37:19.352Z,26.57
2018-10-03T04:39:48.499Z,26.48
2018-10-03T04:42:18.138Z,29.05
2018-10-03T04:44:47.305Z,25.65
2018-10-03T04:47:16.379Z,27.85
2018-10-03T04:49:45.704Z,25.27
2018-10-03T04:52:14.854Z,29.40
2018-10-03T04:54:43.914Z,27.67
2018-10-03T04:57:13.315Z,18.85
2018-10-03T04:59:42.526Z,31.70
2018-10-03T05:02:11.803Z,25.40
2018-10-03T05:04:41.189Z,23.77
2018-10-03T05:07:10.384Z,26.33
2018-10-03T05:09:39.507Z,22.10
2018-10-03T05:12:08.815Z,21.17
2018-10-03T05:14:37.967Z,22.70
2018-10-03T05:17:07.827Z,21.52
2018-10-03T05:19:37.952Z,20.20
2018-10-03T05:22:06.967Z,21.62
2018-10-03T05:24:35.894Z,19.75
2018-10-03T05:27:05.357Z,24.07
2018-10-03T05:29:34.428Z,26.30
2018-10-03T05:32:03.715Z,17.87
2018-10-03T05:34:33.093Z,18.07
2018-10-03T05:37:02.247Z,20.43
2018-10-03T05:39:31.481Z,21.52
2018-10-03T05:42:00.966Z,18.60
2018-10-03T05:44:30.059Z,20.77
2018-10-03T05:46:59.234Z,16.25
2018-10-03T05:49:28.863Z,45.00
2018-10-03T05:51:58.155Z,27.17
2018-10-03T05:54:27.529Z,17.15
2018-10-03T05:56:56.740Z,17.32
2018-10-03T05:59:25.844Z,18.00
2018-10-03T06:01:54.833Z,17.23
2018-10-03T06:04:24.594Z,13.28
2018-10-03T06:06:53.757Z,10.95
2018-10-03T06:09:23.045Z,13.45
2018-10-03T06:11:52.524Z,9.63
2018-10-03T06:14:21.550Z,12.15
2018-10-03T06:16:50.719Z,11.33
2018-10-03T06:19:20.107Z,15.78
2018-10-03T06:21:49.514Z,10.43
2018-10-03T06:24:18.619Z,12.85
2018-10-03T06:26:47.787Z,16.23
2018-10-03T06:29:16.942Z,9.83
2018-10-03T06:31:46.841Z,9.60
2018-10-03T06:34:16.160Z,13.13
2018-10-03T06:36:45.319Z,20.15
2018-10-03T06:39:14.569Z,9.68
2018-10-03T06:41:44.007Z,8.68
2018-10-03T06:44:13.070Z,8.28
2018-10-03T06:46:42.233Z,8.00
2018-10-03T06:49:11.459Z,10.95
2018-10-03T06:51:40.619Z,9.83
2018-10-03T06:54:09.827Z,7.53
2018-10-03T06:56:39.427Z,9.35
2018-10-03T06:59:08.714Z,9.53
2018-10-03T07:01:37.747Z,7.85
2018-10-03T07:04:07.274Z,8.23
2018-10-03T07:06:36.542Z,7.83
2018-10-03T07:09:07.288Z,7.10
2018-10-03T07:11:36.916Z,10.80
2018-10-03T07:14:06.039Z,7.67
2018-10-03T07:16:35.292Z,8.30
2018-10-03T07:19:04.862Z,11.63
2018-10-03T07:21:33.907Z,7.17
2018-10-03T07:24:03.182Z,13.43
2018-10-03T07:26:32.600Z,7.65
2018-10-03T07:29:01.909Z,8.53
2018-10-03T07:31:30.880Z,8.68
2018-10-03T07:34:00.316Z,6.80
2018-10-03T07:36:29.511Z,11.50
2018-10-03T07:38:58.624Z,10.55
2018-10-03T07:41:27.838Z,6.60
2018-10-03T07:43:57.058Z,6.35
2018-10-03T07:46:26.394Z,7.62
2018-10-03T07:48:55.931Z,6.42
2018-10-03T07:51:25.061Z,6.40
2018-10-03T07:53:54.235Z,5.10
2018-10-03T07:56:23.633Z,6.60
2018-10-03T07:58:52.914Z,7.92
2018-10-03T08:01:22.001Z,6.83
2018-10-03T08:03:51.431Z,6.53
2018-10-03T08:06:20.700Z,6.20
2018-10-03T08:08:49.979Z,6.53
2018-10-03T08:11:19.118Z,5.55
2018-10-03T08:13:48.147Z,5.60
2018-10-03T08:16:17.412Z,6.60
2018-10-03T08:18:46.864Z,5.20
2018-10-03T08:21:16.121Z,6.70
2018-10-03T08:23:45.666Z,8.50
2018-10-03T08:26:15.151Z,5.55
2018-10-03T08:28:44.419Z,5.80
2018-10-03T08:31:13.595Z,6.47
2018-10-03T08:33:42.933Z,4.90
2018-10-03T08:36:12.214Z,4.45
2018-10-03T08:38:41.451Z,5.00
2018-10-03T08:41:10.843Z,3.83
2018-10-03T08:43:40.136Z,3.20
2018-10-03T08:46:09.426Z,7.22
2018-10-03T08:48:38.859Z,4.67
2018-10-03T08:51:08.600Z,4.70
2018-10-03T08:53:37.649Z,5.58
2018-10-03T08:56:06.955Z,5.05
2018-10-03T08:58:36.293Z,5.00
2018-10-03T09:01:05.424Z,3.60
2018-10-03T09:03:34.782Z,4.00
2018-10-03T09:06:03.928Z,4.37
2018-10-03T09:08:32.938Z,6.15
2018-10-03T09:11:01.852Z,4.22
2018-10-03T09:13:30.840Z,4.15
2018-10-03T09:15:59.939Z,6.08
2018-10-03T09:18:29.456Z,6.37
2018-10-03T09:20:58.549Z,7.83
2018-10-03T09:23:27.773Z,4.50
2018-10-03T09:25:57.154Z,4.00
2018-10-03T09:28:26.382Z,4.30
2018-10-03T09:30:55.362Z,5.90
2018-10-03T09:33:24.762Z,3.98
2018-10-03T09:35:53.628Z,4.40
2018-10-03T09:38:22.832Z,4.33
2018-10-03T09:40:52.256Z,4.03
2018-10-03T09:43:21.533Z,5.72
2018-10-03T09:45:50.762Z,5.30
2018-10-03T09:48:20.076Z,3.72
2018-10-03T09:50:49.178Z,4.10
2018-10-03T09:53:18.236Z,4.40
2018-10-03T09:55:47.367Z,6.22
2018-10-03T09:58:16.379Z,5.37
2018-10-03T10:00:50.675Z,4.47
2018-10-03T10:03:19.830Z,5.10
2018-10-03T10:05:49.163Z,3.83
2018-10-03T10:08:18.767Z,4.35
2018-10-03T10:10:47.855Z,5.45
2018-10-03T10:13:16.950Z,6.08
2018-10-03T10:15:46.519Z,4.22
2018-10-03T10:18:15.456Z,3.60
2018-10-03T10:20:44.720Z,4.20
2018-10-03T10:23:14.020Z,3.77
2018-10-03T10:25:43.115Z,4.92
2018-10-03T10:28:12.139Z,5.00
2018-10-03T10:30:41.760Z,4.78
2018-10-03T10:33:11.119Z,4.30
2018-10-03T10:35:40.383Z,5.03
2018-10-03T10:38:09.807Z,4.15
2018-10-03T10:40:38.800Z,7.17
2018-10-03T10:43:07.743Z,8.05
2018-10-03T10:45:36.950Z,4.58
2018-10-03T10:48:06.096Z,4.53
2018-10-03T10:50:35.218Z,4.42
2018-10-03T10:53:04.585Z,7.70
2018-10-03T10:55:33.663Z,4.95
2018-10-03T10:58:02.910Z,5.42
2018-10-03T11:00:32.231Z,5.30
2018-10-03T11:03:01.306Z,5.28
2018-10-03T11:05:30.283Z,4.92
2018-10-03T11:07:59.815Z,9.33
2018-10-03T11:10:29.411Z,4.30
2018-10-03T11:12:58.546Z,4.65
2018-10-03T11:15:27.876Z,6.08
2018-10-03T11:17:57.038Z,3.72
2018-10-03T11:20:26.183Z,4.60
2018-10-03T11:22:55.763Z,6.97
2018-10-03T11:25:24.859Z,4.25
2018-10-03T11:27:53.949Z,5.22
2018-10-03T11:30:23.223Z,4.65
2018-10-03T11:32:52.282Z,6.45
2018-10-03T11:35:21.335Z,4.85
2018-10-03T11:37:50.781Z,4.75
2018-10-03T11:40:19.910Z,4.40
2018-10-03T11:42:49.914Z,5.75
2018-10-03T11:45:19.331Z,4.28
2018-10-03T11:47:48.411Z,3.98
2018-10-03T11:50:17.335Z,4.33
2018-10-03T11:52:46.902Z,3.80
2018-10-03T11:55:15.932Z,4.62
2018-10-03T11:57:45.131Z,5.08
2018-10-03T12:00:14.491Z,4.53
2018-10-03T12:02:43.681Z,4.40
2018-10-03T12:05:12.983Z,4.10
2018-10-03T12:07:42.492Z,4.12
2018-10-03T12:10:11.767Z,4.22
2018-10-03T12:12:40.845Z,3.02
2018-10-03T12:15:10.283Z,4.25
2018-10-03T12:17:39.371Z,3.75
2018-10-03T12:20:08.627Z,8.23
2018-10-03T12:22:37.905Z,3.27
2018-10-03T12:25:07.097Z,3.95
2018-10-03T12:27:36.248Z,3.52
2018-10-03T12:30:05.985Z,4.00
2018-10-03T12:32:35.091Z,3.00
2018-10-03T12:35:04.270Z,3.80
2018-10-03T12:37:33.778Z,4.92
2018-10-03T12:40:03.062Z,3.47
2018-10-03T12:42:32.139Z,8.75
2018-10-03T12:45:01.308Z,4.60
2018-10-03T12:47:30.315Z,4.72
2018-10-03T12:49:59.507Z,5.08
2018-10-03T12:52:28.989Z,3.87
2018-10-03T12:54:58.224Z,3.58
2018-10-03T12:57:27.315Z,4.37
2018-10-03T12:59:56.596Z,5.35
2018-10-03T13:02:25.759Z,5.05
2018-10-03T13:04:55.033Z,3.17
2018-10-03T13:07:24.279Z,3.25
2018-10-03T13:09:53.411Z,3.75
2018-10-03T13:12:22.565Z,7.53
2018-10-03T13:14:52.242Z,3.62
2018-10-03T13:17:21.369Z,3.55
2018-10-03T13:19:50.475Z,2.70
2018-10-03T13:22:18.322Z,3.37
2018-10-03T13:24:47.435Z,3.52
2018-10-03T13:27:16.738Z,3.92
2018-10-03T13:29:46.132Z,3.37
2018-10-03T13:32:15.454Z,4.28
2018-10-03T13:34:44.719Z,2.95
2018-10-03T13:37:14.198Z,3.92
2018-10-03T13:39:43.344Z,4.20
2018-10-03T13:42:12.547Z,6.62
2018-10-03T13:44:41.947Z,2.85
2018-10-03T13:47:11.054Z,4.58
2018-10-03T13:49:40.139Z,7.60
2018-10-03T13:52:09.771Z,3.58
2018-10-03T13:54:39.038Z,5.33
2018-10-03T13:57:08.165Z,4.28
2018-10-03T13:59:37.479Z,7.72
2018-10-03T14:02:06.571Z,3.83
2018-10-03T14:04:35.660Z,5.92
2018-10-03T14:07:05.051Z,5.85
2018-10-03T14:09:34.151Z,3.55
2018-10-03T14:12:03.134Z,2.50
2018-10-03T14:14:32.332Z,4.53
2018-10-03T14:17:01.354Z,4.83
2018-10-03T14:19:30.486Z,4.05
2018-10-03T14:21:59.628Z,3.80
2018-10-03T14:24:28.792Z,2.27
2018-10-03T14:26:57.924Z,2.83
2018-10-03T14:29:27.151Z,1.92
2018-10-03T14:31:56.311Z,1.70
2018-10-03T14:34:25.294Z,4.55
2018-10-03T14:36:54.527Z,4.90
2018-10-03T14:39:23.688Z,4.72
2018-10-03T14:41:52.891Z,4.92
2018-10-03T14:44:22.367Z,4.53
2018-10-03T14:46:51.491Z,5.05
2018-10-03T14:49:20.691Z,6.03
2018-10-03T14:51:50.687Z,4.47
2018-10-03T14:54:19.831Z,1.98
2018-10-03T14:56:48.948Z,1.70
2018-10-03T14:59:17.959Z,3.00
2018-10-03T15:01:47.434Z,1.47
2018-10-03T15:04:16.507Z,1.90
2018-10-03T15:06:45.590Z,2.45
2018-10-03T15:09:14.644Z,3.02
2018-10-03T15:11:43.812Z,3.37
2018-10-03T15:14:13.211Z,1.80
2018-10-03T15:16:42.313Z,8.45
2018-10-03T15:19:11.614Z,5.05
2018-10-03T15:21:40.720Z,3.37
2018-10-03T15:24:09.761Z,7.08
2018-10-03T15:26:38.990Z,5.15
2018-10-03T15:29:08.320Z,6.45
2018-10-03T15:31:37.588Z,5.58
2018-10-03T15:34:06.821Z,5.28
2018-10-03T15:36:36.247Z,4.85
2018-10-03T15:39:06.368Z,7.45
2018-10-03T15:41:35.504Z,5.40
2018-10-03T15:44:04.759Z,5.90
2018-10-03T15:46:34.129Z,10.25
2018-10-03T15:49:03.299Z,10.53
2018-10-03T15:51:32.629Z,9.85
2018-10-03T15:54:01.744Z,8.50
2018-10-03T15:56:30.829Z,16.77
2018-10-03T15:59:00.132Z,12.25
2018-10-03T16:01:29.887Z,12.53
2018-10-03T16:03:59.055Z,14.20
2018-10-03T16:06:28.419Z,8.10
2018-10-03T16:08:57.453Z,10.10
2018-10-03T16:11:26.627Z,9.38
2018-10-03T16:13:55.787Z,8.05
2018-10-03T16:16:24.922Z,13.90
2018-10-03T16:18:54.250Z,8.50
2018-10-03T16:21:24.092Z,5.53
2018-10-03T16:23:53.318Z,8.58
2018-10-03T16:26:22.463Z,6.78
2018-10-03T16:28:51.930Z,3.72
2018-10-03T16:31:20.967Z,4.70
2018-10-03T16:33:50.097Z,7.22
2018-10-03T16:36:19.598Z,11.05
2018-10-03T16:38:48.789Z,7.08
2018-10-03T16:41:17.786Z,7.78
2018-10-03T16:43:47.095Z,4.80
2018-10-03T16:46:16.386Z,6.17
2018-10-03T16:48:46.780Z,4.30
2018-10-03T16:51:16.160Z,10.43
2018-10-03T16:53:45.091Z,5.70
2018-10-03T16:56:14.062Z,12.28
2018-10-03T16:58:43.392Z,10.70
2018-10-03T17:01:12.520Z,4.70
2018-10-03T17:03:41.578Z,6.37
2018-10-03T17:06:11.107Z,5.12
2018-10-03T17:08:40.286Z,6.25
2018-10-03T17:11:09.299Z,7.60
2018-10-03T17:13:48.880Z,4.50
2018-10-03T17:16:18.084Z,7.58
2018-10-03T17:18:47.391Z,7.03
2018-10-03T17:21:16.655Z,4.42
2018-10-03T17:23:45.736Z,8.05
2018-10-03T17:26:14.813Z,4.65
2018-10-03T17:28:43.815Z,5.30
2018-10-03T17:31:12.855Z,5.72
2018-10-03T17:33:42.051Z,4.62
2018-10-03T17:36:11.446Z,3.50
2018-10-03T17:38:40.812Z,4.25
2018-10-03T17:41:09.856Z,3.47
2018-10-03T17:43:39.214Z,3.30
2018-10-03T17:46:08.505Z,3.85
2018-10-03T17:48:37.710Z,5.33
2018-10-03T17:51:07.183Z,3.00
2018-10-03T17:53:36.302Z,7.37
2018-10-03T17:56:05.447Z,3.15
2018-10-03T17:58:34.831Z,8.10
2018-10-03T18:01:04.087Z,5.78
2018-10-03T18:03:33.215Z,4.05
2018-10-03T18:06:02.440Z,4.92
2018-10-03T18:08:31.607Z,4.47
2018-10-03T18:11:00.647Z,3.20
2018-10-03T18:13:30.078Z,6.40
2018-10-03T18:15:59.369Z,2.58
2018-10-03T18:18:28.432Z,3.40
2018-10-03T18:20:57.574Z,3.37
2018-10-03T18:23:26.703Z,2.85
2018-10-03T18:25:55.890Z,3.62
2018-10-03T18:28:25.371Z,3.10
2018-10-03T18:30:54.494Z,8.08
2018-10-03T18:33:23.643Z,4.35
2018-10-03T18:35:52.735Z,5.15
2018-10-03T18:38:21.891Z,6.12
2018-10-03T18:40:50.864Z,5.35
2018-10-03T18:43:20.238Z,3.58
2018-10-03T18:45:49.611Z,2.98
2018-10-03T18:48:18.906Z,6.55
2018-10-03T18:50:48.567Z,3.92
2018-10-03T18:53:17.669Z,5.50
2018-10-03T18:55:46.895Z,5.25
2018-10-03T18:58:16.418Z,3.83
2018-10-03T19:00:45.588Z,4.78
2018-10-03T19:03:14.510Z,3.62
2018-10-03T19:05:43.656Z,12.90
2018-10-03T19:08:12.701Z,2.40
2018-10-03T19:10:41.971Z,2.72
2018-10-03T19:13:11.033Z,5.10
2018-10-03T19:15:40.280Z,4.42
2018-10-03T19:18:09.605Z,3.22
2018-10-03T19:20:38.818Z,4.42
2018-10-03T19:23:07.896Z,3.87
2018-10-03T19:25:36.999Z,1.90
2018-10-03T19:28:06.026Z,1.90
2018-10-03T19:30:36.328Z,1.70
2018-10-03T19:33:05.405Z,2.27
2018-10-03T19:35:35.777Z,5.75
2018-10-03T19:38:04.974Z,2.87
2018-10-03T19:40:34.091Z,1.37
2018-10-03T19:43:03.155Z,5.90
2018-10-03T19:45:32.276Z,6.78
2018-10-03T19:48:01.186Z,3.80
2018-10-03T19:50:30.463Z,5.83
2018-10-03T19:52:59.404Z,1.37
2018-10-03T19:55:28.507Z,2.70
2018-10-03T19:57:58.207Z,8.30
2018-10-03T20:00:27.417Z,5.00
2018-10-03T20:02:56.428Z,0.90
2018-10-03T20:05:25.655Z,2.72
2018-10-03T20:07:54.878Z,3.08
2018-10-03T20:10:23.960Z,1.80
2018-10-03T20:12:53.469Z,2.95
2018-10-03T20:15:22.615Z,4.65
2018-10-03T20:17:51.774Z,1.05
2018-10-03T20:20:21.084Z,2.70
2018-10-03T20:22:50.102Z,2.60
2018-10-03T20:25:19.159Z,3.47
2018-10-03T20:27:48.466Z,2.30
2018-10-03T20:30:17.709Z,3.00
2018-10-03T20:32:47.011Z,1.40
2018-10-03T20:35:16.139Z,5.85
2018-10-03T20:37:45.211Z,1.77
2018-10-03T20:40:14.302Z,2.40
2018-10-03T20:42:47.528Z,3.75
2018-10-03T20:45:16.593Z,2.22
2018-10-03T20:47:47.790Z,2.40
2018-10-03T20:50:16.906Z,3.33
2018-10-03T20:52:45.935Z,3.55
2018-10-03T20:55:15.028Z,6.10
2018-10-03T20:57:44.505Z,2.85
2018-10-03T21:00:13.530Z,1.95
2018-10-03T21:02:42.531Z,2.77
2018-10-03T21:05:11.569Z,0.70
2018-10-03T21:07:40.616Z,3.27
2018-10-03T21:10:09.978Z,1.52
2018-10-03T21:12:39.087Z,3.20
2018-10-03T21:15:08.509Z,1.10
2018-10-03T21:17:37.725Z,3.95
2018-10-03T21:20:06.879Z,3.40
2018-10-03T21:22:36.090Z,3.33
2018-10-03T21:25:05.317Z,1.05
2018-10-03T21:27:34.547Z,0.95
2018-10-03T21:30:03.623Z,3.85
2018-10-03T21:32:32.755Z,1.40
2018-10-03T21:35:02.179Z,1.57
2018-10-03T21:37:31.205Z,1.05
2018-10-03T21:40:00.201Z,2.62
2018-10-03T21:42:29.642Z,1.37
2018-10-03T21:44:58.711Z,2.17
2018-10-03T21:47:27.906Z,2.72
2018-10-03T21:49:57.161Z,6.67
2018-10-03T21:52:26.219Z,7.58
2018-10-03T21:54:55.383Z,4.35
2018-10-03T21:57:24.638Z,7.10
2018-10-03T21:59:53.894Z,4.08
2018-10-03T22:02:23.150Z,5.85
2018-10-03T22:04:52.747Z,4.12
2018-10-03T22:07:22.552Z,1.67
2018-10-03T22:09:51.696Z,2.40
2018-10-03T22:12:21.215Z,1.95
2018-10-03T22:14:50.415Z,3.02
2018-10-03T22:17:23.519Z,0.60
2018-10-03T22:19:53.191Z,1.50
2018-10-03T22:22:22.490Z,1.15
2018-10-03T22:24:52.023Z,1.15
2018-10-03T22:27:21.029Z,1.37
2018-10-03T22:29:50.024Z,2.62
2018-10-03T22:32:19.006Z,1.32
2018-10-03T22:34:48.183Z,3.55
2018-10-03T22:37:17.547Z,2.65
2018-10-03T22:39:46.602Z,0.53
2018-10-03T22:42:15.746Z,1.15
2018-10-03T22:44:45.236Z,2.98
2018-10-03T22:47:14.319Z,0.70
2018-10-03T22:49:43.235Z,2.27
2018-10-03T22:52:12.404Z,0.50
2018-10-03T22:54:41.435Z,1.77
2018-10-03T22:57:10.439Z,1.57
2018-10-03T22:59:39.838Z,2.08
2018-10-03T23:02:09.156Z,2.15
2018-10-03T23:04:38.587Z,2.98
2018-10-03T23:07:07.927Z,5.00
2018-10-03T23:09:37.225Z,0.78
2018-10-03T23:12:06.444Z,2.35
2018-10-03T23:14:35.975Z,0.60
2018-10-03T23:17:05.054Z,1.37
2018-10-03T23:19:34.002Z,1.90
2018-10-03T23:22:03.449Z,3.25
2018-10-03T23:24:32.391Z,3.40
2018-10-03T23:27:01.407Z,1.75
2018-10-03T23:29:30.846Z,1.25
2018-10-03T23:32:00.535Z,1.47
2018-10-03T23:34:29.695Z,1.95
2018-10-03T23:36:59.023Z,0.60
2018-10-03T23:39:28.087Z,1.82
2018-10-03T23:41:57.119Z,2.98
2018-10-03T23:44:26.467Z,2.70
2018-10-03T23:46:55.527Z,3.17
2018-10-03T23:49:24.774Z,3.33
2018-10-03T23:51:54.075Z,2.37
2018-10-03T23:54:23.095Z,0.78
2018-10-03T23:56:52.243Z,1.37
2018-10-03T23:59:21.664Z,2.45
